createdAt,value
2018-05-21T00:01:51.242Z,14.50
2018-05-21T00:04:19.061Z,14.30
2018-05-21T00:06:46.045Z,14.30
2018-05-21T00:09:13.801Z,14.20
2018-05-21T00:11:40.835Z,14.20
2018-05-21T00:14:08.101Z,14.10
2018-05-21T00:16:35.125Z,14.20
2018-05-21T00:19:02.116Z,14.10
2018-05-21T00:21:29.120Z,14.10
2018-05-21T00:23:56.136Z,14.00
2018-05-21T00:26:23.169Z,14.00
2018-05-21T00:28:50.901Z,13.90
2018-05-21T00:31:17.909Z,13.90
2018-05-21T00:33:44.976Z,13.90
2018-05-21T00:36:11.991Z,13.80
2018-05-21T00:38:39.008Z,13.80
2018-05-21T00:41:06.764Z,13.90
2018-05-21T00:43:34.571Z,13.90
2018-05-21T00:46:01.592Z,13.90
2018-05-21T00:48:29.344Z,13.90
2018-05-21T00:50:57.107Z,14.00
2018-05-21T00:53:24.196Z,14.00
2018-05-21T00:55:51.185Z,14.00
2018-05-21T00:58:18.208Z,14.00
2018-05-21T01:00:45.216Z,14.00
2018-05-21T01:03:13.001Z,14.00
2018-05-21T01:05:40.024Z,14.00
2018-05-21T01:08:07.780Z,14.00
2018-05-21T01:10:34.831Z,14.00
2018-05-21T01:13:02.701Z,14.10
2018-05-21T01:15:29.725Z,14.00
2018-05-21T01:17:56.725Z,14.10
2018-05-21T01:20:23.735Z,14.10
2018-05-21T01:22:50.828Z,14.10
2018-05-21T01:25:17.845Z,14.10
2018-05-21T01:27:45.568Z,14.10
2018-05-21T01:30:12.566Z,14.10
2018-05-21T01:32:39.632Z,14.00
2018-05-21T01:35:06.661Z,14.00
2018-05-21T01:37:33.640Z,14.00
2018-05-21T01:40:00.669Z,14.00
2018-05-21T01:42:27.799Z,14.00
2018-05-21T01:44:54.821Z,14.00
2018-05-21T01:47:22.561Z,14.00
2018-05-21T01:49:49.571Z,14.00
2018-05-21T01:52:16.609Z,14.00
2018-05-21T01:54:43.633Z,13.90
2018-05-21T01:57:10.668Z,13.90
2018-05-21T01:59:38.412Z,14.00
2018-05-21T02:02:05.415Z,13.90
2018-05-21T02:04:32.439Z,13.90
2018-05-21T02:07:00.176Z,14.00
2018-05-21T02:09:27.219Z,13.90
2018-05-21T02:11:54.987Z,14.00
2018-05-21T02:14:22.181Z,14.00
2018-05-21T02:16:49.204Z,14.00
2018-05-21T02:19:16.189Z,13.90
2018-05-21T02:21:43.221Z,13.90
2018-05-21T02:24:10.296Z,13.90
2018-05-21T02:26:37.320Z,14.00
2018-05-21T02:29:04.372Z,14.00
2018-05-21T02:31:31.385Z,14.00
2018-05-21T02:33:58.479Z,14.00
2018-05-21T02:36:25.469Z,14.00
2018-05-21T02:38:53.268Z,14.00
2018-05-21T02:41:20.285Z,14.00
2018-05-21T02:43:47.391Z,14.10
2018-05-21T02:46:14.442Z,14.10
2018-05-21T02:48:41.456Z,14.10
2018-05-21T02:51:08.488Z,14.10
2018-05-21T02:53:36.281Z,14.20
2018-05-21T02:56:03.516Z,14.20
2018-05-21T02:58:30.617Z,14.20
2018-05-21T03:00:57.637Z,14.10
2018-05-21T03:03:24.677Z,14.10
2018-05-21T03:05:51.691Z,14.20
2018-05-21T03:08:19.456Z,14.10
2018-05-21T03:10:47.213Z,14.20
2018-05-21T03:13:14.297Z,14.10
2018-05-21T03:15:41.329Z,14.20
2018-05-21T03:18:09.052Z,14.10
2018-05-21T03:20:36.120Z,14.10
2018-05-21T03:23:03.923Z,14.20
2018-05-21T03:25:30.922Z,14.10
2018-05-21T03:27:58.674Z,14.20
2018-05-21T03:30:25.636Z,14.20
2018-05-21T03:32:53.473Z,14.20
2018-05-21T03:35:20.503Z,14.20
2018-05-21T03:37:47.504Z,14.20
2018-05-21T03:40:15.264Z,14.30
2018-05-21T03:42:43.073Z,14.20
2018-05-21T03:45:10.216Z,14.20
2018-05-21T03:47:37.221Z,14.20
2018-05-21T03:50:04.228Z,14.30
2018-05-21T03:52:31.368Z,14.30
2018-05-21T03:54:58.427Z,14.30
2018-05-21T03:57:25.460Z,14.30
2018-05-21T04:00:11.019Z,14.30
2018-05-21T04:02:56.536Z,14.30
2018-05-21T04:05:23.592Z,14.30
2018-05-21T04:07:50.615Z,14.40
2018-05-21T04:10:17.619Z,14.40
2018-05-21T04:12:44.703Z,14.40
2018-05-21T04:15:11.746Z,14.40
2018-05-21T04:17:38.750Z,14.50
2018-05-21T04:20:06.502Z,14.50
2018-05-21T04:22:34.336Z,14.50
2018-05-21T04:25:01.357Z,14.50
2018-05-21T04:27:28.379Z,14.60
2018-05-21T04:29:56.187Z,14.60
2018-05-21T04:32:23.229Z,14.60
2018-05-21T04:34:50.273Z,14.70
2018-05-21T04:37:17.308Z,14.70
2018-05-21T04:39:44.323Z,14.80
2018-05-21T04:42:11.312Z,14.90
2018-05-21T04:44:38.384Z,14.90
2018-05-21T04:47:05.413Z,14.90
2018-05-21T04:49:32.405Z,14.90
2018-05-21T04:51:59.427Z,14.90
2018-05-21T04:54:26.528Z,15.00
2018-05-21T04:56:53.547Z,15.00
2018-05-21T04:59:20.559Z,15.00
2018-05-21T05:01:47.609Z,15.00
2018-05-21T05:04:14.657Z,15.00
2018-05-21T05:06:41.699Z,15.00
2018-05-21T05:09:08.684Z,15.10
2018-05-21T05:11:35.784Z,15.10
2018-05-21T05:14:03.243Z,15.20
2018-05-21T05:16:30.456Z,15.20
2018-05-21T05:18:58.184Z,15.30
2018-05-21T05:21:26.197Z,15.30
2018-05-21T05:23:53.585Z,15.30
2018-05-21T05:26:20.981Z,15.40
2018-05-21T05:28:48.758Z,15.40
2018-05-21T05:31:16.104Z,15.40
2018-05-21T05:33:43.350Z,15.30
2018-05-21T05:36:11.137Z,15.30
2018-05-21T05:38:38.955Z,15.30
2018-05-21T05:41:06.705Z,15.30
2018-05-21T05:43:33.774Z,15.30
2018-05-21T05:46:01.285Z,15.30
2018-05-21T05:48:29.305Z,15.40
2018-05-21T05:50:56.576Z,15.30
2018-05-21T05:53:23.854Z,15.40
2018-05-21T05:55:51.062Z,15.40
2018-05-21T05:58:18.222Z,15.50
2018-05-21T06:00:45.296Z,15.50
2018-05-21T06:03:13.109Z,15.60
2018-05-21T06:05:40.141Z,15.60
2018-05-21T06:08:07.157Z,15.60
2018-05-21T06:10:34.179Z,15.70
2018-05-21T06:13:01.334Z,15.70
2018-05-21T06:15:28.472Z,15.80
2018-05-21T06:17:55.482Z,15.80
2018-05-21T06:20:22.536Z,16.00
2018-05-21T06:22:49.604Z,16.00
2018-05-21T06:25:16.645Z,16.00
2018-05-21T06:27:43.676Z,16.00
2018-05-21T06:30:11.008Z,16.00
2018-05-21T06:32:38.089Z,16.10
2018-05-21T06:35:05.119Z,16.10
2018-05-21T06:37:32.120Z,16.10
2018-05-21T06:39:59.916Z,16.20
2018-05-21T06:42:27.889Z,16.30
2018-05-21T06:44:54.949Z,16.30
2018-05-21T06:47:21.987Z,16.50
2018-05-21T06:49:49.000Z,16.50
2018-05-21T06:52:16.319Z,16.60
2018-05-21T06:54:43.408Z,16.70
2018-05-21T06:57:11.415Z,16.80
2018-05-21T06:59:38.600Z,16.70
2018-05-21T07:02:05.609Z,16.80
2018-05-21T07:04:32.700Z,16.80
2018-05-21T07:06:59.876Z,16.80
2018-05-21T07:09:27.663Z,16.90
2018-05-21T07:11:54.710Z,16.90
2018-05-21T07:14:21.821Z,16.90
2018-05-21T07:16:48.839Z,16.90
2018-05-21T07:19:15.853Z,17.00
2018-05-21T07:21:43.180Z,17.00
2018-05-21T07:24:10.292Z,17.00
2018-05-21T07:26:37.341Z,17.00
2018-05-21T07:29:04.630Z,17.00
2018-05-21T07:31:31.759Z,17.10
2018-05-21T07:33:58.797Z,17.20
2018-05-21T07:36:25.841Z,17.20
2018-05-21T07:38:53.110Z,17.20
2018-05-21T07:41:20.131Z,17.30
2018-05-21T07:43:47.168Z,17.30
2018-05-21T07:46:14.205Z,17.40
2018-05-21T07:48:41.369Z,17.50
2018-05-21T07:51:08.499Z,17.60
2018-05-21T07:53:35.641Z,17.60
2018-05-21T07:56:03.420Z,17.80
2018-05-21T07:58:30.455Z,17.70
2018-05-21T08:00:57.477Z,17.70
2018-05-21T08:03:25.446Z,17.90
2018-05-21T08:05:53.209Z,18.00
2018-05-21T08:08:20.265Z,18.00
2018-05-21T08:10:47.515Z,18.10
2018-05-21T08:13:14.615Z,18.10
2018-05-21T08:15:41.680Z,18.20
2018-05-21T08:18:08.760Z,18.20
2018-05-21T08:20:36.536Z,18.30
2018-05-21T08:23:03.636Z,18.20
2018-05-21T08:25:30.633Z,18.30
2018-05-21T08:27:57.664Z,18.40
2018-05-21T08:30:25.445Z,18.50
2018-05-21T08:32:52.535Z,18.50
2018-05-21T08:35:19.840Z,18.60
2018-05-21T08:37:47.776Z,18.60
2018-05-21T08:40:14.830Z,18.60
2018-05-21T08:42:41.960Z,18.60
2018-05-21T08:45:09.313Z,18.60
2018-05-21T08:47:36.401Z,18.60
2018-05-21T08:50:04.178Z,18.60
2018-05-21T08:52:31.996Z,18.50
2018-05-21T08:54:58.993Z,18.50
2018-05-21T08:57:25.990Z,18.60
2018-05-21T08:59:53.085Z,18.60
2018-05-21T09:02:20.164Z,18.70
2018-05-21T09:04:47.253Z,18.60
2018-05-21T09:07:14.430Z,18.70
2018-05-21T09:09:41.467Z,18.80
2018-05-21T09:12:09.281Z,18.90
2018-05-21T09:14:36.441Z,18.90
2018-05-21T09:17:03.617Z,18.90
2018-05-21T09:19:31.545Z,18.90
2018-05-21T09:21:58.598Z,18.90
2018-05-21T09:24:25.645Z,18.90
2018-05-21T09:26:52.653Z,18.90
2018-05-21T09:29:22.557Z,19.00
2018-05-21T09:31:49.597Z,18.90
2018-05-21T09:34:17.560Z,19.00
2018-05-21T09:36:44.655Z,19.00
2018-05-21T09:39:11.740Z,19.00
2018-05-21T09:41:38.779Z,19.10
2018-05-21T09:44:06.804Z,19.30
2018-05-21T09:46:33.864Z,19.30
2018-05-21T09:49:01.015Z,19.30
2018-05-21T09:51:28.012Z,19.30
2018-05-21T09:53:55.196Z,19.30
2018-05-21T09:56:22.913Z,19.30
2018-05-21T09:58:49.955Z,19.40
2018-05-21T10:01:16.973Z,19.50
2018-05-21T10:03:44.165Z,19.60
2018-05-21T10:06:11.964Z,19.60
2018-05-21T10:08:39.008Z,19.60
2018-05-21T10:11:06.764Z,19.70
2018-05-21T10:13:34.693Z,19.70
2018-05-21T10:16:02.530Z,19.80
2018-05-21T10:18:29.564Z,19.80
2018-05-21T10:20:56.589Z,19.80
2018-05-21T10:23:23.905Z,19.80
2018-05-21T10:25:50.973Z,19.70
2018-05-21T10:28:17.980Z,19.80
2018-05-21T10:30:45.039Z,19.90
2018-05-21T10:33:12.097Z,19.90
2018-05-21T10:35:39.113Z,19.90
2018-05-21T10:38:06.424Z,19.90
2018-05-21T10:40:33.651Z,19.80
2018-05-21T10:43:00.744Z,19.70
2018-05-21T10:45:27.804Z,19.70
2018-05-21T10:47:54.804Z,19.80
2018-05-21T10:50:21.866Z,19.70
2018-05-21T10:52:49.166Z,19.80
2018-05-21T10:55:16.200Z,20.00
2018-05-21T10:57:43.344Z,20.30
2018-05-21T11:00:10.291Z,20.30
2018-05-21T11:02:37.565Z,20.50
2018-05-21T11:05:04.601Z,20.70
2018-05-21T11:07:32.550Z,20.80
2018-05-21T11:09:59.793Z,20.90
2018-05-21T11:12:26.971Z,20.90
2018-05-21T11:14:54.876Z,20.90
2018-05-21T11:17:22.049Z,20.90
2018-05-21T11:19:49.109Z,21.00
2018-05-21T11:22:16.875Z,21.10
2018-05-21T11:24:44.671Z,21.20
2018-05-21T11:27:11.670Z,21.20
2018-05-21T11:29:39.664Z,21.50
2018-05-21T11:32:06.759Z,21.50
2018-05-21T11:34:34.880Z,21.40
2018-05-21T11:37:02.456Z,21.40
2018-05-21T11:39:30.211Z,21.40
2018-05-21T11:41:57.247Z,21.30
2018-05-21T11:44:25.059Z,21.40
2018-05-21T11:46:52.249Z,21.40
2018-05-21T11:49:19.248Z,21.30
2018-05-21T11:51:46.258Z,21.20
2018-05-21T11:54:14.084Z,21.00
2018-05-21T11:56:41.108Z,21.10
2018-05-21T11:59:08.868Z,21.50
2018-05-21T12:01:36.705Z,21.60
2018-05-21T12:04:03.815Z,21.60
2018-05-21T12:06:30.851Z,21.60
2018-05-21T12:08:57.840Z,21.70
2018-05-21T12:11:25.669Z,21.90
2018-05-21T12:13:53.956Z,21.90
2018-05-21T12:16:21.115Z,21.90
2018-05-21T12:18:49.025Z,21.90
2018-05-21T12:21:16.273Z,21.90
2018-05-21T12:23:43.490Z,22.10
2018-05-21T12:26:10.623Z,22.10
2018-05-21T12:28:38.997Z,22.00
2018-05-21T12:31:10.107Z,21.90
2018-05-21T12:33:38.086Z,22.30
2018-05-21T12:36:07.694Z,23.10
2018-05-21T12:38:35.516Z,23.50
2018-05-21T12:41:07.347Z,23.30
2018-05-21T12:43:34.584Z,22.90
2018-05-21T12:46:02.474Z,22.40
2018-05-21T12:48:29.702Z,22.30
2018-05-21T12:50:59.862Z,22.20
2018-05-21T12:53:27.290Z,22.30
2018-05-21T12:55:54.442Z,22.70
2018-05-21T12:58:21.604Z,23.40
2018-05-21T13:00:49.469Z,23.70
2018-05-21T13:03:17.401Z,23.40
2018-05-21T13:05:44.494Z,23.40
2018-05-21T13:08:12.532Z,23.20
2018-05-21T13:10:40.531Z,23.30
2018-05-21T13:13:08.380Z,23.50
2018-05-21T13:15:35.397Z,23.50
2018-05-21T13:18:03.152Z,23.40
2018-05-21T13:20:30.896Z,23.30
2018-05-21T13:22:57.988Z,23.30
2018-05-21T13:25:25.027Z,23.50
2018-05-21T13:27:52.044Z,23.50
2018-05-21T13:30:19.801Z,23.10
2018-05-21T13:32:47.608Z,22.80
2018-05-21T13:35:14.644Z,22.80
2018-05-21T13:37:42.372Z,22.50
2018-05-21T13:40:10.184Z,22.40
2018-05-21T13:42:37.234Z,22.30
2018-05-21T13:45:04.281Z,22.20
2018-05-21T13:47:31.301Z,22.10
2018-05-21T13:49:58.348Z,22.10
2018-05-21T13:52:25.548Z,21.90
2018-05-21T13:54:52.520Z,21.90
2018-05-21T13:57:20.280Z,22.10
2018-05-21T13:59:48.099Z,22.30
2018-05-21T14:02:15.345Z,22.20
2018-05-21T14:04:42.352Z,23.00
2018-05-21T14:07:10.112Z,23.20
2018-05-21T14:09:37.971Z,23.20
2018-05-21T14:12:05.012Z,23.20
2018-05-21T14:14:32.124Z,23.20
2018-05-21T14:16:59.193Z,23.00
2018-05-21T14:19:26.213Z,22.80
2018-05-21T14:21:53.224Z,22.70
2018-05-21T14:24:21.028Z,22.60
2018-05-21T14:26:48.068Z,22.60
2018-05-21T14:29:15.056Z,22.50
2018-05-21T14:31:42.084Z,22.50
2018-05-21T14:34:09.175Z,22.60
2018-05-21T14:36:36.344Z,22.50
2018-05-21T14:39:04.953Z,22.30
2018-05-21T14:41:32.364Z,22.30
2018-05-21T14:43:59.456Z,22.30
2018-05-21T14:46:26.468Z,22.30
2018-05-21T14:48:54.010Z,22.30
2018-05-21T14:51:21.816Z,22.10
2018-05-21T14:53:48.876Z,22.10
2018-05-21T14:56:15.900Z,21.90
2018-05-21T14:58:42.904Z,21.80
2018-05-21T15:01:10.505Z,21.70
2018-05-21T15:03:38.012Z,21.60
2018-05-21T15:06:05.008Z,21.60
2018-05-21T15:08:32.045Z,21.50
2018-05-21T15:10:59.176Z,21.40
2018-05-21T15:13:26.268Z,21.50
2018-05-21T15:15:53.305Z,21.40
2018-05-21T15:18:20.324Z,21.30
2018-05-21T15:20:48.512Z,21.00
2018-05-21T15:23:15.716Z,21.00
2018-05-21T15:25:43.017Z,20.90
2018-05-21T15:28:10.871Z,20.80
2018-05-21T15:30:37.895Z,20.80
2018-05-21T15:33:05.722Z,20.70
2018-05-21T15:35:32.729Z,20.60
2018-05-21T15:38:00.508Z,20.50
2018-05-21T15:40:28.288Z,20.40
2018-05-21T15:42:55.337Z,20.30
2018-05-21T15:45:22.304Z,20.30
2018-05-21T15:47:49.311Z,20.30
2018-05-21T15:50:16.320Z,20.30
2018-05-21T15:52:43.447Z,20.30
2018-05-21T15:55:10.512Z,20.30
2018-05-21T15:57:37.970Z,20.20
2018-05-21T16:00:05.017Z,20.20
2018-05-21T16:02:32.160Z,20.20
2018-05-21T16:04:59.188Z,20.20
2018-05-21T16:07:26.238Z,20.20
2018-05-21T16:09:53.957Z,20.20
2018-05-21T16:12:21.892Z,20.10
2018-05-21T16:14:48.893Z,20.20
2018-05-21T16:17:16.636Z,20.10
2018-05-21T16:19:43.640Z,20.10
2018-05-21T16:22:10.687Z,20.00
2018-05-21T16:24:37.725Z,20.00
2018-05-21T16:27:04.744Z,20.00
2018-05-21T16:29:31.779Z,20.10
2018-05-21T16:31:59.536Z,20.20
2018-05-21T16:34:27.643Z,20.20
2018-05-21T16:36:55.469Z,20.30
2018-05-21T16:39:23.240Z,20.30
2018-05-21T16:41:50.436Z,20.30
2018-05-21T16:44:17.745Z,20.40
2018-05-21T16:46:44.820Z,20.40
2018-05-21T16:49:11.896Z,20.40
2018-05-21T16:51:38.937Z,20.30
2018-05-21T16:54:06.008Z,20.30
2018-05-21T16:56:33.826Z,20.30
2018-05-21T16:59:00.824Z,20.30
2018-05-21T17:01:27.973Z,20.30
2018-05-21T17:03:55.106Z,20.30
2018-05-21T17:06:22.144Z,20.20
2018-05-21T17:08:49.147Z,20.20
2018-05-21T17:11:16.229Z,20.30
2018-05-21T17:13:43.610Z,20.20
2018-05-21T17:16:10.633Z,20.20
2018-05-21T17:18:37.663Z,20.20
2018-05-21T17:21:04.684Z,20.20
2018-05-21T17:23:32.484Z,20.10
2018-05-21T17:25:59.495Z,20.10
2018-05-21T17:28:26.530Z,20.10
2018-05-21T17:30:54.308Z,20.10
2018-05-21T17:33:21.389Z,20.10
2018-05-21T17:35:48.469Z,20.10
2018-05-21T17:38:22.524Z,20.10
2018-05-21T17:40:50.300Z,20.00
2018-05-21T17:43:18.120Z,20.00
2018-05-21T17:45:45.136Z,19.90
2018-05-21T17:48:12.129Z,20.00
2018-05-21T17:50:39.176Z,19.90
2018-05-21T17:53:07.253Z,19.80
2018-05-21T17:55:35.117Z,19.80
2018-05-21T17:58:02.895Z,19.80
2018-05-21T18:00:30.124Z,19.80
2018-05-21T18:02:57.224Z,19.70
2018-05-21T18:05:24.223Z,19.60
2018-05-21T18:07:51.250Z,19.60
2018-05-21T18:10:18.292Z,19.50
2018-05-21T18:12:45.627Z,19.40
2018-05-21T18:15:13.011Z,19.40
2018-05-21T18:17:40.016Z,19.30
2018-05-21T18:20:07.057Z,19.20
2018-05-21T18:22:34.141Z,19.10
2018-05-21T18:25:01.176Z,19.00
2018-05-21T18:27:28.349Z,18.90
2018-05-21T18:29:55.405Z,18.90
2018-05-21T18:32:23.191Z,18.70
2018-05-21T18:34:50.180Z,18.80
2018-05-21T18:37:17.337Z,18.70
2018-05-21T18:39:44.362Z,18.60
2018-05-21T18:42:11.514Z,18.60
2018-05-21T18:44:38.578Z,18.50
2018-05-21T18:47:05.658Z,18.50
2018-05-21T18:49:33.231Z,18.40
2018-05-21T18:52:00.252Z,18.40
2018-05-21T18:54:27.273Z,18.30
2018-05-21T18:56:54.292Z,18.20
2018-05-21T18:59:21.309Z,18.20
2018-05-21T19:01:48.306Z,18.10
2018-05-21T19:04:16.441Z,18.00
2018-05-21T19:06:44.184Z,18.00
2018-05-21T19:09:11.209Z,18.00
2018-05-21T19:11:38.210Z,17.90
2018-05-21T19:14:05.343Z,17.90
2018-05-21T19:16:33.195Z,17.70
2018-05-21T19:19:00.192Z,17.70
2018-05-21T19:21:27.222Z,17.70
2018-05-21T19:23:54.296Z,17.70
2018-05-21T19:26:21.333Z,17.60
2018-05-21T19:28:48.344Z,17.50
2018-05-21T19:31:15.338Z,17.40
2018-05-21T19:33:43.128Z,17.20
2018-05-21T19:36:10.969Z,17.30
2018-05-21T19:38:38.106Z,17.20
2018-05-21T19:41:05.093Z,17.20
2018-05-21T19:43:32.212Z,17.10
2018-05-21T19:45:59.311Z,17.10
2018-05-21T19:48:27.060Z,17.00
2018-05-21T19:50:54.151Z,16.90
2018-05-21T19:53:21.228Z,17.00
2018-05-21T19:55:48.224Z,16.90
2018-05-21T19:58:15.279Z,16.90
2018-05-21T20:00:43.018Z,16.80
2018-05-21T20:03:10.040Z,16.80
2018-05-21T20:05:37.072Z,16.80
2018-05-21T20:08:04.126Z,16.70
2018-05-21T20:10:31.128Z,16.70
2018-05-21T20:12:58.208Z,16.60
2018-05-21T20:15:25.216Z,16.60
2018-05-21T20:17:52.510Z,16.50
2018-05-21T20:20:38.159Z,16.50
2018-05-21T20:23:06.228Z,16.50
2018-05-21T20:25:33.232Z,16.50
2018-05-21T20:28:00.248Z,16.50
2018-05-21T20:30:27.634Z,16.40
2018-05-21T20:32:55.038Z,16.40
2018-05-21T20:35:22.804Z,16.30
2018-05-21T20:37:49.896Z,16.30
2018-05-21T20:40:16.888Z,16.20
2018-05-21T20:42:44.084Z,16.20
2018-05-21T20:45:11.127Z,16.10
2018-05-21T20:47:38.104Z,16.10
2018-05-21T20:50:05.163Z,16.10
2018-05-21T20:52:32.273Z,16.00
2018-05-21T20:54:59.992Z,15.90
2018-05-21T20:57:27.752Z,15.80
2018-05-21T20:59:54.764Z,15.80
2018-05-21T21:02:21.788Z,15.70
2018-05-21T21:04:48.780Z,15.70
2018-05-21T21:07:15.772Z,15.60
2018-05-21T21:09:42.776Z,15.60
2018-05-21T21:12:09.781Z,15.60
2018-05-21T21:14:36.844Z,15.50
2018-05-21T21:17:03.863Z,15.50
2018-05-21T21:19:30.860Z,15.40
2018-05-21T21:21:57.868Z,15.40
2018-05-21T21:24:25.009Z,15.30
2018-05-21T21:26:52.784Z,15.20
2018-05-21T21:29:19.772Z,15.20
2018-05-21T21:31:46.768Z,15.20
2018-05-21T21:34:14.540Z,15.20
2018-05-21T21:36:41.539Z,15.20
2018-05-21T21:39:09.319Z,15.10
2018-05-21T21:41:37.056Z,15.10
2018-05-21T21:44:04.192Z,15.10
2018-05-21T21:46:31.228Z,15.10
2018-05-21T21:48:59.335Z,15.10
2018-05-21T21:51:26.336Z,15.00
2018-05-21T21:53:53.368Z,15.00
2018-05-21T21:56:20.384Z,14.90
2018-05-21T21:58:48.125Z,14.90
2018-05-21T22:01:15.105Z,14.90
2018-05-21T22:03:42.179Z,14.90
2018-05-21T22:06:09.897Z,14.80
2018-05-21T22:08:36.924Z,14.70
2018-05-21T22:11:03.968Z,14.70
2018-05-21T22:13:31.068Z,14.60
2018-05-21T22:15:58.813Z,14.60
2018-05-21T22:18:26.556Z,14.60
2018-05-21T22:20:53.566Z,14.50
2018-05-21T22:23:20.601Z,14.50
2018-05-21T22:25:47.676Z,14.50
2018-05-21T22:28:14.709Z,14.50
2018-05-21T22:30:41.700Z,14.50
2018-05-21T22:33:08.832Z,14.40
2018-05-21T22:35:35.827Z,14.40
2018-05-21T22:38:02.895Z,14.40
2018-05-21T22:40:29.913Z,14.40
2018-05-21T22:42:58.424Z,14.30
2018-05-21T22:45:26.147Z,14.30
2018-05-21T22:47:53.880Z,14.30
2018-05-21T22:50:20.959Z,14.30
2018-05-21T22:52:47.936Z,14.20
2018-05-21T22:55:14.959Z,14.30
2018-05-21T22:57:42.692Z,14.20
2018-05-21T23:00:09.821Z,14.20
2018-05-21T23:02:36.852Z,14.20
2018-05-21T23:05:03.849Z,14.20
2018-05-21T23:07:30.856Z,14.20
2018-05-21T23:09:57.837Z,14.20
2018-05-21T23:12:24.800Z,14.10
2018-05-21T23:14:52.644Z,14.10
2018-05-21T23:17:19.620Z,14.10
2018-05-21T23:19:47.360Z,14.00
2018-05-21T23:22:14.335Z,14.00
2018-05-21T23:24:41.388Z,14.00
2018-05-21T23:27:08.401Z,14.00
2018-05-21T23:29:35.396Z,14.00
2018-05-21T23:32:02.405Z,14.00
2018-05-21T23:34:30.203Z,13.90
2018-05-21T23:36:57.201Z,13.90
2018-05-21T23:39:24.186Z,13.90
2018-05-21T23:41:51.180Z,13.90
2018-05-21T23:44:18.329Z,13.80
2018-05-21T23:46:45.324Z,13.80
2018-05-21T23:49:13.060Z,13.70
2018-05-21T23:51:40.060Z,13.70
2018-05-21T23:54:07.092Z,13.70
2018-05-21T23:56:34.288Z,13.70
2018-05-21T23:59:01.271Z,13.70
